Sagamore, Massachusetts
Current Conditions -  °F | °C
As of 11:55 AM on Thursday 23 Oct 2014 (Local Time) from KFMH Reporting Station
Overcast Overcast  
Wind Chill: 59°   Ceiling: 2700
Heat Index: 59°   Visibility: 7mi
Dew Point: 57°   Wind: 8mph
Humidity: 94%   Direction: 360°N
Pressure: 29.55"   Gusts: NA
Location:  41.78°N, 70.53°W
Report Text: KFMH 231555Z AUTO 36007KT 330V030 7SM BKN027 OVC032 15/14 A2955 RMK AO2 LTG DSNT E AND S
Loading
Personal Weather Stations






























Interactive Weather Map
Tropical Storm Tracking
New forecast layout! Learn more

10-Day Weather Forecast

Advertisements
Track Severe Weather on mobile